Airfield :
LOGIN :

Register | Disclaimer

   EN    FR    IT 

 










Legend :    VFR   Marginal VFR   IFR   Intensive IFR   Very Intensive IFR
Visi :
Ceiling :
>= 8 km
>= 3000ft
5 to 8 km
1000 to 3000 ft
1500m to 5 km
500 to 1000 ft
800 to 1500m
200 to 500 ft
< 800m
< 200 ft
Symbols :   Thunderstorms  Fog  Heavy snow  Heavy precipitations  Wind > 20 kt
SIGMETs :     Misc.  Thunderstorms  Icing  Turbulence  Mountain Waves  Volcanic Ashes






- Airport Elevation : 194 ft
- IATA code : LME


LFRM - Le Mans

CURRENT METAR :
  • 301300Z AUTO 21006KT 170V260 9999 FEW028 OVC039 17/11 Q1024 NOSIG

EXPIRED METARs :
  • 301230Z AUTO 23006KT 180V280 9999 BKN027 BKN034 OVC040 17/11 Q1024 NOSIG
  • 301200Z AUTO 23006KT 180V280 9999 BKN024 BKN032 OVC038 17/12 Q1024 NOSIG
  • 301130Z AUTO 23007KT 190V280 9999 SCT025 OVC035 17/11 Q1024 NOSIG
  • 301100Z AUTO 22010KT 180V250 9999 FEW025 OVC036 16/11 Q1024 NOSIG
  • 301030Z AUTO 21008KT 170V240 9999 FEW021 OVC034 16/12 Q1024 NOSIG
  • 301000Z AUTO 20007KT 170V230 9999 OVC033 16/12 Q1024 NOSIG

TAF TAF LFRM
Valid from the 30 at 12:00 until the 31 at 12:00 UTC


301100Z 3012/3112 23009KT 9999 BKN030
BECMG 3022/3024 3000 BR
TEMPO 3100/3109 0300 FG VV///
BECMG 3109/3111 9999 NSW



MET'MAP, your aeronautical weather chart ! - Copyright ORBIFLY December 2007 - Disclaimer

ORBIFLY MET'MAP TEAM :

Programming & Development : Alexandra Zaïnal
Concept & original design : Baudouin d'Aumeries
Assistance for programming : Marc-Olivier Méhu
Technical & hardware support : Manuel Goepfert

Contact : metmap@orbifly.com




SOURCES & CREDITS :

   NOAA